Time;durP1;ratioP1;P1;durP2;ratioP2;P2;SDS_P1;SDS_P2;PMS_P1;PMS_P2;Temp;Humidity;BMP_temperature;BMP_pressure;BME280_temperature;BME280_humidity;BME280_pressure;Samples;Min_cycle;Max_cycle;Signal;HPM_P1;HPM_P2
2022/06/23 00:01:43;;;;;;;;;8.40;7.40;;;;;21.42;45.55;98487.25;6259002;27;99423;-66
2022/06/23 00:04:50;;;;;;;;;8.00;7.40;;;;;21.34;46.13;98485.19;6252552;27;96583;-66
2022/06/23 00:07:56;;;;;;;;;7.00;6.00;;;;;21.15;46.12;98474.28;6223535;27;97762;-66
2022/06/23 00:11:01;;;;;;;;;8.25;8.00;;;;;21.12;46.33;98488.56;6249420;27;97069;-66
2022/06/23 00:14:14;;;;;;;;;6.80;6.80;;;;;21.06;46.59;98480.72;6248707;27;97482;-66
2022/06/23 00:17:23;;;;;;;;;9.00;8.00;;;;;20.99;46.98;98481.09;6258096;27;96774;-66
2022/06/23 00:20:32;;;;;;;;;8.00;7.00;;;;;20.96;47.18;98475.41;6231837;27;97955;-68
2022/06/23 00:23:39;;;;;;;;;7.80;7.00;;;;;20.90;47.11;98474.69;6259672;27;96922;-66
2022/06/23 00:26:43;;;;;;;;;8.00;8.00;;;;;20.85;47.56;98476.69;6238742;27;97783;-67
2022/06/23 00:29:47;;;;;;;;;9.00;8.00;;;;;20.81;47.52;98478.41;6243401;27;97027;-66
2022/06/23 00:32:50;;;;;;;;;9.00;7.00;;;;;20.77;47.69;98477.38;6261112;27;97432;-66
2022/06/23 00:35:56;;;;;;;;;11.40;8.00;;;;;20.63;48.48;98471.81;6242973;27;97992;-67
2022/06/23 00:39:00;;;;;;;;;8.00;7.00;;;;;20.61;48.12;98471.31;6260089;27;97464;-67
2022/06/23 00:42:07;;;;;;;;;7.60;6.40;;;;;20.49;48.35;98469.00;6261197;27;96474;-68
2022/06/23 00:45:21;;;;;;;;;10.00;8.00;;;;;20.46;48.40;98477.81;6261748;27;96688;-67
2022/06/23 00:48:31;;;;;;;;;9.00;8.00;;;;;20.43;48.36;98477.59;6252074;27;97367;-67
2022/06/23 00:51:44;;;;;;;;;7.60;7.40;;;;;20.37;48.70;98476.84;6240596;27;96719;-67
2022/06/23 00:54:52;;;;;;;;;7.50;7.00;;;;;20.37;48.92;98474.13;6230263;27;98533;-67
2022/06/23 00:58:00;;;;;;;;;6.00;6.00;;;;;20.34;48.83;98471.97;6240903;27;98486;-67
2022/06/23 01:01:14;;;;;;;;;9.00;8.00;;;;;20.25;48.70;98458.09;6258585;27;97083;-67
2022/06/23 01:04:29;;;;;;;;;7.00;7.00;;;;;20.35;48.41;98464.56;6264864;27;97497;-67
2022/06/23 01:07:42;;;;;;;;;8.00;7.00;;;;;20.20;48.49;98444.47;6263766;27;97489;-67
2022/06/23 01:10:53;;;;;;;;;9.00;7.00;;;;;20.26;49.14;98464.38;6261247;27;97168;-67
2022/06/23 01:14:07;;;;;;;;;7.00;7.00;;;;;20.18;48.83;98471.31;6244068;27;97456;-68
2022/06/23 01:17:17;;;;;;;;;7.00;7.00;;;;;20.12;49.23;98482.63;6230258;27;98644;-67
2022/06/23 01:20:30;;;;;;;;;8.00;7.60;;;;;20.04;49.46;98480.53;6264924;27;97749;-67
2022/06/23 01:23:55;;;;;;;;;7.40;7.00;;;;;19.95;49.58;98479.56;6245759;27;98989;-67
2022/06/23 01:27:20;;;;;;;;;7.00;7.00;;;;;19.83;49.84;98483.53;6264493;27;96703;-67
2022/06/23 01:30:30;;;;;;;;;8.40;8.00;;;;;19.80;49.66;98478.63;6259078;27;98992;-67
2022/06/23 01:33:39;;;;;;;;;8.80;6.80;;;;;19.75;50.33;98480.59;6255846;27;96656;-67
2022/06/23 01:36:48;;;;;;;;;9.00;8.00;;;;;19.70;50.69;98489.69;6262435;27;96587;-67
2022/06/23 01:40:02;;;;;;;;;7.60;7.00;;;;;19.70;50.30;98489.69;6239081;27;99731;-66
2022/06/23 01:43:12;;;;;;;;;8.40;7.00;;;;;19.64;50.74;98482.66;6264482;27;97435;-66
2022/06/23 01:46:23;;;;;;;;;9.60;8.00;;;;;19.51;50.47;98458.72;6236433;27;96936;-65
2022/06/23 01:49:34;;;;;;;;;10.00;7.00;;;;;19.66;50.54;98488.66;6260387;27;96594;-66
2022/06/23 01:52:38;;;;;;;;;8.00;8.00;;;;;19.58;50.62;98483.81;6263099;27;97082;-66
2022/06/23 01:56:08;;;;;;;;;9.00;8.75;;;;;19.60;50.79;98494.44;6261558;27;97513;-67
2022/06/23 01:59:22;;;;;;;;;9.00;7.00;;;;;19.53;51.03;98497.53;6260430;27;97372;-66
2022/06/23 02:02:51;;;;;;;;;9.00;8.00;;;;;19.56;50.84;98507.91;6257547;27;97673;-67
2022/06/23 02:06:00;;;;;;;;;7.60;7.00;;;;;19.41;50.93;98495.16;6261209;27;97379;-66
2022/06/23 02:09:13;;;;;;;;;7.60;7.60;;;;;19.49;51.26;98512.09;6262583;27;97767;-68
2022/06/23 02:12:22;;;;;;;;;6.00;6.00;;;;;19.40;51.40;98512.66;6261570;27;97440;-67
2022/06/23 02:15:34;;;;;;;;;7.00;6.00;;;;;19.38;51.21;98522.25;6241970;27;97718;-66
2022/06/23 02:18:50;;;;;;;;;8.00;7.00;;;;;19.41;51.50;98527.97;6261692;27;97452;-67
2022/06/23 02:22:02;;;;;;;;;8.75;7.00;;;;;19.33;51.65;98536.78;6244855;27;97480;-66
2022/06/23 02:25:15;;;;;;;;;7.00;7.00;;;;;19.27;51.75;98529.75;6263131;27;96340;-67
2022/06/23 02:28:28;;;;;;;;;7.00;7.00;;;;;19.16;51.38;98522.72;6255877;27;97387;-66
2022/06/23 02:31:42;;;;;;;;;8.00;6.00;;;;;19.17;51.73;98526.28;6240102;27;96853;-67
2022/06/23 02:34:52;;;;;;;;;7.00;7.00;;;;;19.05;51.63;98532.13;6261416;27;96676;-66
2022/06/23 02:38:00;;;;;;;;;8.00;7.00;;;;;19.04;51.46;98534.03;6260922;27;96469;-66
2022/06/23 02:41:14;;;;;;;;;7.00;7.00;;;;;19.02;51.46;98543.59;6260530;27;99529;-66
2022/06/23 02:44:35;;;;;;;;;8.20;7.20;;;;;18.96;51.56;98540.09;6243998;27;96581;-66
2022/06/23 02:47:57;;;;;;;;;8.00;8.00;;;;;18.93;51.44;98540.66;6260386;27;96491;-67
2022/06/23 02:51:19;;;;;;;;;8.00;7.50;;;;;18.92;51.70;98547.22;6237168;27;98516;-67
2022/06/23 02:54:37;;;;;;;;;11.00;9.00;;;;;18.88;51.63;98545.34;6263160;27;96541;-66
2022/06/23 02:57:47;;;;;;;;;9.00;9.00;;;;;18.75;51.46;98532.34;6247871;27;97021;-66
2022/06/23 03:00:57;;;;;;;;;9.00;8.00;;;;;18.86;51.52;98559.28;6259016;27;96857;-66
2022/06/23 03:04:09;;;;;;;;;10.00;9.00;;;;;18.82;51.67;98552.75;6260167;27;96880;-66
2022/06/23 03:07:22;;;;;;;;;7.00;7.00;;;;;18.78;52.10;98564.53;6254835;27;97488;-66
2022/06/23 03:10:31;;;;;;;;;8.00;7.00;;;;;18.80;52.06;98565.06;6258813;27;96963;-66
2022/06/23 03:13:43;;;;;;;;;8.00;8.00;;;;;18.71;52.36;98562.13;6259646;27;96932;-67
2022/06/23 03:16:52;;;;;;;;;9.00;8.00;;;;;18.87;51.97;98574.56;6259396;27;96620;-67
2022/06/23 03:20:00;;;;;;;;;9.80;8.00;;;;;18.95;52.21;98565.78;6260241;27;97498;-67
2022/06/23 03:23:13;;;;;;;;;7.60;7.60;;;;;19.07;51.92;98581.81;6224645;27;97731;-67
2022/06/23 03:26:22;;;;;;;;;10.00;8.00;;;;;19.16;51.70;98577.38;6256767;27;96714;-65
2022/06/23 03:29:32;;;;;;;;;8.00;7.80;;;;;19.20;51.71;98580.38;6226857;27;98332;-66
2022/06/23 03:32:42;;;;;;;;;8.40;8.00;;;;;19.29;51.60;98584.13;6259057;27;96817;-66
2022/06/23 03:35:54;;;;;;;;;7.00;7.00;;;;;19.40;51.49;98591.16;6257521;27;98349;-65
2022/06/23 03:42:32;;;;;;;;;8.00;8.00;;;;;19.64;51.20;98588.50;6258055;27;97229;-67
2022/06/23 03:45:42;;;;;;;;;8.00;7.00;;;;;19.77;50.56;98587.81;6251561;27;98187;-66
2022/06/23 03:48:51;;;;;;;;;11.00;10.00;;;;;19.84;50.71;98594.56;6230638;27;98045;-67
2022/06/23 03:51:58;;;;;;;;;10.00;9.00;;;;;19.93;50.19;98594.78;6257223;27;97025;-66
2022/06/23 03:55:14;;;;;;;;;9.60;9.40;;;;;20.06;50.29;98599.56;6228870;27;97850;-66
2022/06/23 03:58:21;;;;;;;;;9.60;8.60;;;;;20.20;50.19;98592.28;6249285;27;96683;-67
2022/06/23 04:01:31;;;;;;;;;9.00;8.00;;;;;20.37;49.23;98596.50;6234307;27;97022;-67
2022/06/23 04:04:46;;;;;;;;;8.00;8.00;;;;;20.58;48.82;98603.34;6242049;27;97473;-66
2022/06/23 04:07:53;;;;;;;;;7.60;7.00;;;;;20.74;48.81;98613.81;6261270;27;97984;-67
2022/06/23 04:11:43;;;;;;;;;8.00;8.00;;;;;20.85;48.22;98608.22;6233501;27;98879;-66
2022/06/23 04:14:39;;;;;;;;;9.00;8.00;;;;;21.03;47.34;98612.88;6240267;27;97761;-66
2022/06/23 04:17:46;;;;;;;;;8.80;7.80;;;;;21.17;46.76;98619.28;6258526;27;96855;-66
2022/06/23 04:20:54;;;;;;;;;9.00;8.00;;;;;21.31;46.64;98622.88;6258705;27;96900;-66
2022/06/23 04:24:02;;;;;;;;;10.00;9.00;;;;;21.37;47.31;98627.19;6260547;27;96616;-68
2022/06/23 04:27:17;;;;;;;;;7.80;7.80;;;;;21.45;46.83;98631.19;6241488;27;96721;-66
2022/06/23 04:30:30;;;;;;;;;8.00;8.00;;;;;21.48;46.65;98627.84;6258139;27;97463;-66
2022/06/23 04:33:38;;;;;;;;;11.00;9.00;;;;;21.67;46.27;98631.38;6237884;27;97371;-66
2022/06/23 04:36:45;;;;;;;;;8.00;8.00;;;;;21.82;45.59;98636.59;6258650;27;96861;-67
2022/06/23 04:40:04;;;;;;;;;8.60;8.60;;;;;21.98;44.85;98643.47;6263129;27;97393;-66
2022/06/23 04:43:17;;;;;;;;;8.50;7.00;;;;;22.10;44.77;98653.16;6264024;27;96857;-67
2022/06/23 04:46:29;;;;;;;;;8.00;7.60;;;;;22.25;44.77;98652.88;6241939;27;97899;-66
2022/06/23 04:49:37;;;;;;;;;7.00;6.60;;;;;22.40;44.03;98652.56;6247731;27;97620;-67
2022/06/23 04:52:48;;;;;;;;;8.00;8.00;;;;;22.55;43.31;98655.03;6259563;27;96781;-67
2022/06/23 04:56:03;;;;;;;;;10.00;9.40;;;;;22.65;43.47;98656.75;6260091;27;98720;-68
2022/06/23 04:59:40;;;;;;;;;7.60;6.60;;;;;22.72;42.90;98662.69;6222084;27;98366;-68
2022/06/23 05:02:50;;;;;;;;;10.00;9.00;;;;;22.80;42.63;98662.78;6234071;27;97285;-67
2022/06/23 05:06:05;;;;;;;;;9.00;8.00;;;;;22.78;42.87;98650.47;6253198;27;96727;-67
2022/06/23 05:09:17;;;;;;;;;10.00;9.00;;;;;22.96;42.53;98668.78;6259893;27;97348;-67
2022/06/23 05:12:26;;;;;;;;;8.00;8.00;;;;;23.12;41.79;98666.50;6253273;27;97888;-68
2022/06/23 05:15:34;;;;;;;;;11.00;10.40;;;;;23.24;41.82;98669.53;6260903;27;97607;-67
2022/06/23 05:18:43;;;;;;;;;9.00;9.00;;;;;23.36;41.54;98671.75;6256762;27;97627;-67
2022/06/23 05:21:51;;;;;;;;;9.50;7.00;;;;;23.49;41.59;98680.00;6254105;27;99235;-69
2022/06/23 05:24:57;;;;;;;;;9.20;8.20;;;;;23.67;41.43;98672.66;6257658;27;97456;-67
2022/06/23 05:28:05;;;;;;;;;10.00;9.00;;;;;23.82;41.17;98675.06;6259517;27;96758;-67
2022/06/23 05:31:17;;;;;;;;;12.00;8.60;;;;;23.96;40.61;98674.97;6260516;27;97468;-70
2022/06/23 05:34:25;;;;;;;;;9.00;8.00;;;;;23.84;39.71;98672.00;6260242;27;97173;-70
2022/06/23 05:37:35;;;;;;;;;11.60;10.00;;;;;23.98;39.02;98687.31;6239069;27;97162;-71
2022/06/23 05:40:47;;;;;;;;;13.00;12.00;;;;;24.00;39.19;98686.97;6254189;27;97361;-74
2022/06/23 05:43:54;;;;;;;;;11.00;11.00;;;;;24.02;39.55;98690.25;6244961;27;97570;-65
2022/06/23 05:47:02;;;;;;;;;14.00;12.00;;;;;24.12;39.24;98693.56;6244040;27;98104;-73
2022/06/23 05:50:09;;;;;;;;;15.00;13.60;;;;;24.25;39.39;98691.88;6254220;27;97529;-71
2022/06/23 05:53:19;;;;;;;;;11.00;11.00;;;;;24.28;39.16;98688.50;6247480;27;97270;-75
2022/06/23 05:56:30;;;;;;;;;10.80;10.20;;;;;24.49;38.85;98708.84;6234120;27;97730;-67
2022/06/23 05:59:50;;;;;;;;;10.50;10.00;;;;;24.60;38.65;98704.69;6251946;27;97121;-71
2022/06/23 06:03:01;;;;;;;;;12.40;12.00;;;;;24.76;39.00;98705.09;6253857;27;97327;-73
2022/06/23 06:06:07;;;;;;;;;12.00;10.00;;;;;24.83;38.22;98697.16;6257067;27;97421;-73
2022/06/23 06:12:39;;;;;;;;;10.00;10.00;;;;;25.25;38.66;98716.94;6247749;27;98485;-71
2022/06/23 06:15:48;;;;;;;;;10.00;9.00;;;;;25.42;38.47;98706.72;6252304;27;97572;-69
2022/06/23 06:18:54;;;;;;;;;12.20;11.00;;;;;25.59;38.13;98718.94;6260157;27;97544;-69
2022/06/23 06:22:01;;;;;;;;;13.00;12.00;;;;;25.71;37.06;98719.91;6244720;27;97740;-74
2022/06/23 06:25:06;;;;;;;;;10.40;10.40;;;;;25.86;37.50;98726.91;6239363;27;99710;-70
2022/06/23 06:28:16;;;;;;;;;12.00;11.00;;;;;26.03;37.85;98726.91;6244551;27;99167;-66
2022/06/23 06:31:27;;;;;;;;;9.75;9.75;;;;;26.23;36.76;98728.19;6259148;27;97537;-70
2022/06/23 06:34:37;;;;;;;;;10.40;9.00;;;;;26.40;36.77;98733.69;6263238;27;97325;-70
2022/06/23 06:37:43;;;;;;;;;11.00;10.00;;;;;26.61;36.28;98734.59;6258165;27;96599;-72
2022/06/23 06:40:54;;;;;;;;;11.00;9.00;;;;;26.73;36.08;98731.16;6258178;27;97484;-69
2022/06/23 06:43:59;;;;;;;;;11.60;10.00;;;;;26.96;35.15;98729.78;6251028;27;96846;-69
2022/06/23 06:47:03;;;;;;;;;9.00;8.00;;;;;27.16;34.74;98733.72;6262762;27;97493;-69
2022/06/23 06:50:23;;;;;;;;;7.00;7.00;;;;;27.35;34.22;98742.41;6262002;27;97935;-69
2022/06/23 06:53:32;;;;;;;;;8.00;8.00;;;;;27.56;33.79;98742.47;6229624;27;96652;-69
2022/06/23 06:56:40;;;;;;;;;8.00;7.00;;;;;27.77;32.94;98745.22;6248052;27;96755;-71
2022/06/23 06:59:52;;;;;;;;;7.50;7.50;;;;;27.85;32.47;98747.94;6247213;27;97213;-70
2022/06/23 07:03:00;;;;;;;;;7.20;6.80;;;;;27.96;32.36;98754.69;6227282;27;99602;-73
2022/06/23 07:06:10;;;;;;;;;7.00;6.00;;;;;28.09;31.49;98744.47;6257769;27;97050;-70
2022/06/23 07:09:22;;;;;;;;;7.00;5.80;;;;;28.11;30.15;98755.19;6261708;27;96636;-70
2022/06/23 07:12:29;;;;;;;;;6.60;6.00;;;;;28.16;30.56;98744.75;6256243;27;97390;-74
2022/06/23 07:15:36;;;;;;;;;6.00;6.00;;;;;28.33;30.23;98754.88;6234008;27;98414;-72
2022/06/23 07:18:45;;;;;;;;;7.00;6.00;;;;;28.49;30.26;98761.41;6248503;27;96429;-73
2022/06/23 07:21:56;;;;;;;;;9.75;8.00;;;;;28.68;30.14;98755.31;6247070;27;96988;-66
2022/06/23 07:25:05;;;;;;;;;12.67;11.67;;;;;28.79;30.12;98754.53;6247774;27;97451;-74
2022/06/23 07:28:17;;;;;;;;;8.60;7.60;;;;;29.00;31.14;98760.00;6241675;27;98492;-70
2022/06/23 07:31:27;;;;;;;;;8.20;7.80;;;;;29.15;29.91;98753.75;6260674;27;96624;-73
2022/06/23 07:34:35;;;;;;;;;6.80;6.00;;;;;29.37;28.56;98769.16;6247760;27;96663;-73
2022/06/23 07:37:52;;;;;;;;;6.40;6.40;;;;;29.57;28.66;98772.94;6255364;27;97537;-74
2022/06/23 07:41:07;;;;;;;;;6.00;5.00;;;;;29.71;28.69;98771.41;6262808;27;96654;-73
2022/06/23 07:44:15;;;;;;;;;5.40;5.00;;;;;29.82;28.60;98779.25;6261712;27;97443;-75
2022/06/23 07:47:20;;;;;;;;;5.00;5.00;;;;;29.94;27.81;98770.94;6205359;28;99416;-71
2022/06/23 07:50:24;;;;;;;;;5.00;4.60;;;;;30.10;28.08;98775.38;6234453;27;98061;-73
2022/06/23 07:53:34;;;;;;;;;5.80;5.00;;;;;30.28;26.58;98775.91;6237127;27;99988;-73
2022/06/23 07:56:40;;;;;;;;;5.20;4.80;;;;;30.33;27.11;98777.63;6257172;27;97401;-75
2022/06/23 07:59:48;;;;;;;;;6.00;5.00;;;;;30.43;26.60;98777.13;6258098;27;96664;-74
2022/06/23 08:03:00;;;;;;;;;5.60;5.00;;;;;30.41;26.33;98774.69;6261358;27;96308;-72
2022/06/23 08:06:17;;;;;;;;;6.50;6.00;;;;;30.17;26.76;98776.75;6243748;27;96643;-73
2022/06/23 08:09:28;;;;;;;;;5.75;4.75;;;;;30.32;27.44;98778.78;6244279;27;99389;-72
2022/06/23 08:12:55;;;;;;;;;4.00;4.00;;;;;30.55;26.85;98782.63;6261917;27;97423;-71
2022/06/23 08:19:31;;;;;;;;;3.00;3.00;;;;;30.38;26.05;98774.59;6242650;27;98061;-70
2022/06/23 08:22:39;;;;;;;;;4.00;4.00;;;;;30.36;27.28;98783.28;6215208;27;98474;-71
2022/06/23 08:25:44;;;;;;;;;5.00;5.00;;;;;30.48;27.15;98785.22;6234118;27;96824;-70
2022/06/23 08:28:50;;;;;;;;;5.00;5.00;;;;;30.52;28.55;98783.34;6235664;27;100558;-71
2022/06/23 08:31:53;;;;;;;;;5.00;5.00;;;;;30.76;27.43;98786.00;6261719;27;97541;-73
2022/06/23 08:35:07;;;;;;;;;5.60;5.00;;;;;30.86;26.18;98793.81;6245239;27;96582;-73
2022/06/23 08:38:16;;;;;;;;;4.00;4.00;;;;;30.83;26.53;98793.72;6242537;27;99581;-73
2022/06/23 08:41:30;;;;;;;;;5.00;4.00;;;;;31.00;25.96;98785.03;6240703;27;98184;-72
2022/06/23 08:45:02;;;;;;;;;5.00;4.20;;;;;31.36;25.98;98789.53;6233608;27;97129;-69
2022/06/23 08:48:11;;;;;;;;;5.00;4.25;;;;;31.70;25.04;98786.00;6255873;27;97116;-70
2022/06/23 08:51:23;;;;;;;;;5.00;5.00;;;;;31.80;23.54;98788.22;6233878;27;99491;-74
2022/06/23 08:54:34;;;;;;;;;3.00;3.00;;;;;31.95;24.03;98782.94;6241015;27;100059;-74
2022/06/23 08:57:47;;;;;;;;;4.00;4.00;;;;;31.69;23.25;98777.97;6235478;27;97581;-69
2022/06/23 09:00:58;;;;;;;;;4.00;3.50;;;;;31.67;23.73;98783.09;6241061;27;96678;-72
2022/06/23 09:04:15;;;;;;;;;5.00;5.00;;;;;31.71;24.61;98786.81;6259088;27;97350;-73
2022/06/23 09:07:31;;;;;;;;;4.25;4.00;;;;;32.06;24.36;98797.94;6228443;27;96764;-73
2022/06/23 09:10:45;;;;;;;;;2.80;2.00;;;;;31.95;22.23;98782.94;6228990;27;97588;-71
2022/06/23 09:14:12;;;;;;;;;4.00;3.00;;;;;31.98;22.76;98793.34;6256999;27;97454;-70
2022/06/23 09:17:35;;;;;;;;;3.00;3.00;;;;;32.10;22.33;98796.88;6244349;27;97395;-68
2022/06/23 09:20:55;;;;;;;;;3.20;3.20;;;;;32.50;24.06;98792.88;6256883;27;98077;-69
2022/06/23 09:25:00;;;;;;;;;3.00;3.00;;;;;32.79;22.66;98791.47;6225036;27;97717;-74
2022/06/23 09:28:17;;;;;;;;;3.00;3.00;;;;;33.00;21.48;98789.03;6235973;27;96831;-69
2022/06/23 09:31:30;;;;;;;;;3.00;3.00;;;;;33.08;21.66;98777.63;6248967;27;97893;-67
2022/06/23 09:34:51;;;;;;;;;2.00;2.00;;;;;33.21;21.87;98786.63;6228540;27;97062;-71
2022/06/23 09:38:12;;;;;;;;;2.00;2.00;;;;;33.41;21.40;98782.56;6261771;27;96973;-68
2022/06/23 09:41:33;;;;;;;;;5.00;3.40;;;;;33.32;20.18;98787.63;6241777;27;98312;-67
2022/06/23 09:44:53;;;;;;;;;3.00;3.00;;;;;33.28;21.60;98780.38;6261846;27;97436;-68
2022/06/23 09:48:41;;;;;;;;;2.50;2.50;;;;;33.02;20.50;98778.31;6246373;27;96738;-72
2022/06/23 09:52:11;;;;;;;;;4.00;3.00;;;;;33.02;20.80;98795.88;6242097;27;99512;-70
2022/06/23 09:55:40;;;;;;;;;3.60;3.00;;;;;33.32;22.01;98790.41;6255631;27;97549;-68
2022/06/23 09:59:11;;;;;;;;;3.20;2.80;;;;;33.42;19.95;98773.03;6251763;27;96591;-70
2022/06/23 10:02:27;;;;;;;;;4.00;2.60;;;;;33.64;21.19;98782.50;6255148;27;97429;-71
2022/06/23 10:05:45;;;;;;;;;3.00;3.00;;;;;33.42;20.54;98789.78;6257732;27;96515;-70
2022/06/23 10:08:57;;;;;;;;;3.00;3.00;;;;;33.22;20.83;98779.88;6254360;27;96684;-70
2022/06/23 10:12:25;;;;;;;;;6.00;4.00;;;;;33.10;22.02;98780.84;6264527;27;96562;-69
2022/06/23 10:15:43;;;;;;;;;3.00;3.00;;;;;32.95;21.64;98784.56;6262000;27;96600;-69
2022/06/23 10:19:23;;;;;;;;;3.00;3.00;;;;;32.77;21.29;98791.00;6263550;27;97144;-68
2022/06/23 10:22:50;;;;;;;;;3.00;3.00;;;;;32.95;20.20;98794.94;6222587;27;96729;-68
2022/06/23 10:26:26;;;;;;;;;4.00;4.00;;;;;32.97;21.49;98785.00;6259716;27;96541;-70
2022/06/23 10:29:47;;;;;;;;;5.00;4.00;;;;;33.22;21.77;98793.03;6255440;27;98629;-70
2022/06/23 10:33:25;;;;;;;;;4.00;4.00;;;;;33.52;22.61;98799.50;6239042;27;99606;-69
2022/06/23 10:37:17;;;;;;;;;4.00;3.80;;;;;33.97;21.17;98792.97;6223549;27;98284;-72
2022/06/23 10:40:52;;;;;;;;;3.00;2.25;;;;;34.37;20.76;98789.53;6248244;27;96637;-69
2022/06/23 10:44:05;;;;;;;;;3.20;3.00;;;;;34.72;19.95;98789.97;6260580;27;97426;-68
2022/06/23 10:47:25;;;;;;;;;4.40;4.00;;;;;34.69;19.29;98796.34;6243446;27;97538;-71
2022/06/23 10:50:41;;;;;;;;;4.80;4.00;;;;;34.85;19.29;98787.66;6251727;27;96569;-71
2022/06/23 10:54:27;;;;;;;;;4.00;4.00;;;;;34.82;19.26;98780.06;6245096;27;98554;-71
2022/06/23 10:57:52;;;;;;;;;3.00;3.00;;;;;34.55;18.48;98784.94;6260697;27;96392;-71
2022/06/23 11:01:08;;;;;;;;;5.00;5.00;;;;;34.42;19.04;98788.38;6262867;27;97451;-71
2022/06/23 11:04:48;;;;;;;;;3.40;3.40;;;;;34.04;19.19;98779.09;6259588;27;97547;-69
2022/06/23 11:08:12;;;;;;;;;3.25;3.00;;;;;34.16;19.85;98775.28;6235772;27;97265;-69
2022/06/23 11:11:28;;;;;;;;;5.20;5.00;;;;;33.92;19.53;98774.53;6261442;27;96623;-74
2022/06/23 11:14:57;;;;;;;;;5.00;5.00;;;;;33.69;20.85;98771.03;6263349;27;96575;-74
2022/06/23 11:18:18;;;;;;;;;4.00;3.20;;;;;33.66;21.37;98768.16;6252085;27;96830;-72
2022/06/23 11:21:38;;;;;;;;;3.00;3.00;;;;;33.33;19.79;98766.88;6244188;27;97491;-73
2022/06/23 11:24:53;;;;;;;;;4.00;3.00;;;;;33.63;20.66;98766.09;6243298;27;96718;-71
2022/06/23 11:28:07;;;;;;;;;5.25;4.00;;;;;34.03;21.53;98763.50;6261707;27;96985;-72
2022/06/23 11:31:31;;;;;;;;;4.00;4.00;;;;;34.30;20.34;98761.47;6244962;27;97593;-68
2022/06/23 11:34:52;;;;;;;;;4.00;4.00;;;;;34.05;18.89;98702.41;6241371;27;96743;-70
2022/06/23 11:38:17;;;;;;;;;4.00;4.00;;;;;34.69;20.20;98764.72;6253738;27;96697;-69
2022/06/23 11:41:36;;;;;;;;;4.00;4.00;;;;;34.93;19.62;98764.16;6257619;27;97790;-70
2022/06/23 11:44:54;;;;;;;;;3.00;3.00;;;;;34.69;18.56;98757.13;6259056;27;96630;-68
2022/06/23 11:48:15;;;;;;;;;4.00;3.20;;;;;34.75;20.11;98757.56;6260505;27;96689;-67
2022/06/23 11:51:33;;;;;;;;;3.00;2.75;;;;;34.94;19.60;98760.19;6213743;27;100337;-70
2022/06/23 11:54:54;;;;;;;;;3.00;3.00;;;;;34.96;18.61;98757.78;6261883;27;98194;-70
2022/06/23 11:58:13;;;;;;;;;3.00;3.00;;;;;34.94;19.10;98759.38;6262318;27;97328;-67
2022/06/23 12:01:19;;;;;;;;;3.20;3.20;;;;;34.82;18.51;98749.25;6255120;27;96648;-66
2022/06/23 12:04:43;;;;;;;;;4.00;4.00;;;;;34.48;19.00;98753.25;6262469;27;96591;-67
2022/06/23 12:08:12;;;;;;;;;3.00;3.00;;;;;34.10;18.75;98758.00;6229226;27;98558;-67
2022/06/23 12:11:15;;;;;;;;;3.60;3.60;;;;;33.88;19.32;98747.72;6260209;27;96536;-68
2022/06/23 12:14:19;;;;;;;;;4.00;4.00;;;;;33.79;19.49;98741.59;6260331;27;97443;-69
2022/06/23 12:17:28;;;;;;;;;3.00;2.40;;;;;33.86;19.70;98736.94;6258408;27;97439;-69
2022/06/23 12:20:41;;;;;;;;;4.00;4.00;;;;;33.81;19.40;98748.44;6252255;27;97558;-69
2022/06/23 12:23:50;;;;;;;;;3.00;3.00;;;;;33.84;18.89;98744.06;6249537;27;97428;-68
2022/06/23 12:27:04;;;;;;;;;3.00;3.00;;;;;33.91;19.06;98735.78;6241715;27;96695;-71
2022/06/23 12:30:11;;;;;;;;;3.00;3.00;;;;;33.67;19.58;98733.44;6226675;27;96601;-72
2022/06/23 12:33:23;;;;;;;;;2.50;2.00;;;;;33.45;19.17;98732.31;6258873;27;97518;-73
2022/06/23 12:36:35;;;;;;;;;3.25;3.00;;;;;33.02;19.51;98737.22;6260647;27;96530;-71
2022/06/23 12:39:45;;;;;;;;;4.00;4.00;;;;;32.73;19.83;98737.09;6257960;27;96874;-71
2022/06/23 12:42:52;;;;;;;;;3.50;3.00;;;;;32.81;20.09;98738.84;6258112;27;97305;-72
2022/06/23 12:46:06;;;;;;;;;4.00;3.00;;;;;32.95;20.12;98728.72;6232115;27;97202;-71
2022/06/23 12:49:28;;;;;;;;;4.00;3.00;;;;;32.88;20.05;98727.81;6258249;27;97758;-72
2022/06/23 12:53:02;;;;;;;;;4.00;4.00;;;;;33.14;20.30;98732.59;6240859;27;99626;-71
2022/06/23 12:56:19;;;;;;;;;3.00;3.00;;;;;33.53;21.33;98732.03;6259881;27;96784;-73
2022/06/23 12:59:28;;;;;;;;;4.00;4.00;;;;;33.90;20.50;98734.16;6265592;27;97596;-71
2022/06/23 13:02:36;;;;;;;;;3.00;3.00;;;;;34.17;19.75;98737.69;6265672;27;97116;-71
2022/06/23 13:05:47;;;;;;;;;4.00;4.00;;;;;34.32;19.38;98736.69;6226529;27;98418;-71
2022/06/23 13:09:01;;;;;;;;;4.00;4.00;;;;;34.52;19.65;98738.13;6248143;27;98168;-72
2022/06/23 13:12:15;;;;;;;;;4.00;4.00;;;;;34.73;19.57;98737.56;6247530;27;97551;-73
2022/06/23 13:15:31;;;;;;;;;3.00;3.00;;;;;34.81;19.36;98735.63;6247004;27;97208;-74
2022/06/23 13:18:41;;;;;;;;;3.00;3.00;;;;;34.85;19.85;98722.44;6238868;27;96647;-73
2022/06/23 13:21:46;;;;;;;;;2.00;2.00;;;;;35.08;19.45;98731.47;6215135;27;99527;-73
2022/06/23 13:24:55;;;;;;;;;5.40;4.60;;;;;34.94;18.99;98743.38;6265204;27;96660;-72
2022/06/23 13:27:58;;;;;;;;;4.00;4.00;;;;;34.82;18.88;98732.44;6264354;27;96955;-72
2022/06/23 13:31:19;;;;;;;;;3.80;3.80;;;;;34.97;19.52;98731.38;6247248;27;96701;-71
2022/06/23 13:34:28;;;;;;;;;4.25;4.00;;;;;35.20;19.06;98733.97;6264661;27;96509;-73
2022/06/23 13:37:41;;;;;;;;;5.25;4.25;;;;;35.46;19.03;98735.75;6246225;27;96875;-71
2022/06/23 13:40:53;;;;;;;;;4.40;4.00;;;;;35.41;18.05;98731.34;6246578;27;96820;-71
2022/06/23 13:44:04;;;;;;;;;3.00;3.00;;;;;35.42;17.46;98724.53;6238442;27;97206;-71
2022/06/23 13:47:16;;;;;;;;;4.25;4.00;;;;;35.25;18.25;98727.19;6265097;27;96620;-72
2022/06/23 13:50:25;;;;;;;;;3.00;3.00;;;;;35.10;18.15;98726.25;6264443;27;97443;-71
2022/06/23 13:53:35;;;;;;;;;3.00;3.00;;;;;34.92;18.49;98716.91;6241072;27;99735;-73
2022/06/23 13:56:44;;;;;;;;;4.00;4.00;;;;;34.46;18.68;98719.25;6265057;27;96596;-72
2022/06/23 13:59:56;;;;;;;;;4.00;4.00;;;;;34.26;18.96;98715.81;6236564;27;96831;-71
2022/06/23 14:03:08;;;;;;;;;4.00;4.00;;;;;34.19;19.96;98722.16;6229838;27;98210;-71
2022/06/23 14:06:18;;;;;;;;;4.00;4.00;;;;;34.15;20.74;98726.09;6240812;27;99761;-72
2022/06/23 14:09:29;;;;;;;;;3.40;3.40;;;;;34.21;20.41;98711.38;6264461;27;96752;-72
2022/06/23 14:12:44;;;;;;;;;4.00;4.00;;;;;33.92;19.88;98721.41;6260798;27;97701;-73
2022/06/23 14:15:57;;;;;;;;;5.00;4.60;;;;;33.65;20.09;98703.06;6245215;27;98348;-72
2022/06/23 14:19:06;;;;;;;;;4.00;4.00;;;;;33.62;20.58;98723.41;6246790;27;97555;-72
2022/06/23 14:22:25;;;;;;;;;4.00;4.00;;;;;33.48;19.37;98696.03;6264795;27;96433;-71
2022/06/23 14:25:35;;;;;;;;;4.00;4.00;;;;;33.68;20.60;98712.69;6245378;27;96769;-72
2022/06/23 14:28:50;;;;;;;;;4.00;4.00;;;;;33.47;19.82;98704.81;6258207;27;97410;-72
2022/06/23 14:32:01;;;;;;;;;3.40;3.40;;;;;33.40;20.37;98708.28;6239998;27;97521;-71
2022/06/23 14:35:15;;;;;;;;;3.00;3.00;;;;;33.52;20.92;98707.28;6260891;27;97428;-72
2022/06/23 14:38:26;;;;;;;;;5.00;4.00;;;;;33.62;20.97;98709.41;6262678;27;97297;-72
2022/06/23 14:41:44;;;;;;;;;3.60;3.00;;;;;33.67;20.72;98709.13;6259184;27;96663;-71
2022/06/23 14:45:09;;;;;;;;;4.00;3.00;;;;;33.65;19.89;98705.03;6229469;27;98016;-71
2022/06/23 14:48:50;;;;;;;;;5.00;4.40;;;;;33.47;20.62;98710.41;6262510;27;97042;-73
2022/06/23 14:51:59;;;;;;;;;3.00;3.00;;;;;33.41;21.22;98707.13;6123417;28;97536;-72
2022/06/23 14:55:20;;;;;;;;;3.00;3.00;;;;;33.43;21.06;98706.72;6135237;28;97482;-72
2022/06/23 14:58:39;;;;;;;;;4.00;4.00;;;;;33.41;20.99;98700.72;6118392;28;99476;-73
2022/06/23 15:01:52;;;;;;;;;4.00;4.00;;;;;33.16;20.65;98696.75;6115273;28;97786;-72
2022/06/23 15:05:02;;;;;;;;;5.00;4.00;;;;;32.91;20.71;98696.31;6136195;28;96988;-72
2022/06/23 15:08:15;;;;;;;;;4.00;4.00;;;;;32.76;21.53;98686.91;6117709;28;97935;-71
2022/06/23 15:11:23;;;;;;;;;4.40;4.00;;;;;32.72;21.62;98685.25;6135560;28;97007;-71
2022/06/23 15:14:36;;;;;;;;;4.00;4.00;;;;;32.81;21.15;98681.00;6119099;28;96665;-72
2022/06/23 15:17:56;;;;;;;;;5.00;5.00;;;;;32.57;21.49;98679.38;6113802;28;97606;-72
2022/06/23 15:23:09;;;;;;;;;4.00;4.00;;;;;32.60;21.39;98675.84;6103208;28;97817;-72